sensor_id;sensor_type;location;lat;lon;timestamp;temperature;humidity
29813;DHT22;16707;48.106;11.548;2024-03-06T00:00:30;6.90;99.90
29813;DHT22;16707;48.106;11.548;2024-03-06T00:02:58;6.90;99.90
29813;DHT22;16707;48.106;11.548;2024-03-06T00:05:25;6.90;99.90
29813;DHT22;16707;48.106;11.548;2024-03-06T00:07:52;6.90;99.90
29813;DHT22;16707;48.106;11.548;2024-03-06T00:10:18;6.90;99.90
29813;DHT22;16707;48.106;11.548;2024-03-06T00:12:45;6.90;99.90
29813;DHT22;16707;48.106;11.548;2024-03-06T00:15:13;6.90;99.90
29813;DHT22;16707;48.106;11.548;2024-03-06T00:17:41;6.90;99.90
29813;DHT22;16707;48.106;11.548;2024-03-06T00:20:07;6.80;99.90
29813;DHT22;16707;48.106;11.548;2024-03-06T00:22:36;6.70;99.90
29813;DHT22;16707;48.106;11.548;2024-03-06T00:25:03;6.70;99.90
29813;DHT22;16707;48.106;11.548;2024-03-06T00:27:29;6.70;99.90
29813;DHT22;16707;48.106;11.548;2024-03-06T00:29:56;6.70;99.90
29813;DHT22;16707;48.106;11.548;2024-03-06T00:32:24;6.60;99.90
29813;DHT22;16707;48.106;11.548;2024-03-06T00:34:51;6.70;99.90
29813;DHT22;16707;48.106;11.548;2024-03-06T00:37:17;6.70;99.90
29813;DHT22;16707;48.106;11.548;2024-03-06T00:39:44;6.70;99.90
29813;DHT22;16707;48.106;11.548;2024-03-06T00:42:11;6.70;99.90
29813;DHT22;16707;48.106;11.548;2024-03-06T00:44:39;6.70;99.90
29813;DHT22;16707;48.106;11.548;2024-03-06T00:47:05;6.70;99.90
29813;DHT22;16707;48.106;11.548;2024-03-06T00:49:34;6.70;99.90
29813;DHT22;16707;48.106;11.548;2024-03-06T00:52:00;6.70;99.90
29813;DHT22;16707;48.106;11.548;2024-03-06T00:54:29;6.60;99.90
29813;DHT22;16707;48.106;11.548;2024-03-06T00:56:56;6.50;99.90
29813;DHT22;16707;48.106;11.548;2024-03-06T00:59:23;6.60;99.90
29813;DHT22;16707;48.106;11.548;2024-03-06T01:01:50;6.60;99.90
29813;DHT22;16707;48.106;11.548;2024-03-06T01:04:17;6.60;99.90
29813;DHT22;16707;48.106;11.548;2024-03-06T01:06:45;6.60;99.90
29813;DHT22;16707;48.106;11.548;2024-03-06T01:09:11;6.60;99.90
29813;DHT22;16707;48.106;11.548;2024-03-06T01:11:38;6.60;99.90
29813;DHT22;16707;48.106;11.548;2024-03-06T01:14:05;6.70;99.90
29813;DHT22;16707;48.106;11.548;2024-03-06T01:16:32;6.60;99.90
29813;DHT22;16707;48.106;11.548;2024-03-06T01:18:58;6.70;99.90
29813;DHT22;16707;48.106;11.548;2024-03-06T01:21:25;6.60;99.90
29813;DHT22;16707;48.106;11.548;2024-03-06T01:23:53;6.70;99.90
29813;DHT22;16707;48.106;11.548;2024-03-06T01:26:20;6.60;99.90
29813;DHT22;16707;48.106;11.548;2024-03-06T01:28:47;6.60;99.90
29813;DHT22;16707;48.106;11.548;2024-03-06T01:31:14;6.60;99.90
29813;DHT22;16707;48.106;11.548;2024-03-06T01:33:40;6.60;99.90
29813;DHT22;16707;48.106;11.548;2024-03-06T01:36:07;6.50;99.90
29813;DHT22;16707;48.106;11.548;2024-03-06T01:38:34;6.50;99.90
29813;DHT22;16707;48.106;11.548;2024-03-06T01:41:02;6.60;99.90
29813;DHT22;16707;48.106;11.548;2024-03-06T01:43:36;6.60;99.90
29813;DHT22;16707;48.106;11.548;2024-03-06T01:46:03;6.70;99.90
29813;DHT22;16707;48.106;11.548;2024-03-06T01:48:31;6.60;99.90
29813;DHT22;16707;48.106;11.548;2024-03-06T01:50:59;6.60;99.90
29813;DHT22;16707;48.106;11.548;2024-03-06T01:53:26;6.60;99.90
29813;DHT22;16707;48.106;11.548;2024-03-06T01:55:53;6.60;99.90
29813;DHT22;16707;48.106;11.548;2024-03-06T01:58:22;6.60;99.90
29813;DHT22;16707;48.106;11.548;2024-03-06T02:00:50;6.60;99.90
29813;DHT22;16707;48.106;11.548;2024-03-06T02:03:16;6.50;99.90
29813;DHT22;16707;48.106;11.548;2024-03-06T02:05:44;6.50;99.90
29813;DHT22;16707;48.106;11.548;2024-03-06T02:08:11;6.50;99.90
29813;DHT22;16707;48.106;11.548;2024-03-06T02:10:38;6.50;99.90
29813;DHT22;16707;48.106;11.548;2024-03-06T02:13:05;6.50;99.90
29813;DHT22;16707;48.106;11.548;2024-03-06T02:15:33;6.50;99.90
29813;DHT22;16707;48.106;11.548;2024-03-06T02:18:04;6.60;99.90
29813;DHT22;16707;48.106;11.548;2024-03-06T02:20:32;6.60;99.90
29813;DHT22;16707;48.106;11.548;2024-03-06T02:22:59;6.60;99.90
29813;DHT22;16707;48.106;11.548;2024-03-06T02:25:26;6.60;99.90
29813;DHT22;16707;48.106;11.548;2024-03-06T02:27:53;6.60;99.90
29813;DHT22;16707;48.106;11.548;2024-03-06T02:30:19;6.60;99.90
29813;DHT22;16707;48.106;11.548;2024-03-06T02:32:47;6.60;99.90
29813;DHT22;16707;48.106;11.548;2024-03-06T02:35:13;6.50;99.90
29813;DHT22;16707;48.106;11.548;2024-03-06T02:37:42;6.50;99.90
29813;DHT22;16707;48.106;11.548;2024-03-06T02:40:10;6.50;99.90
29813;DHT22;16707;48.106;11.548;2024-03-06T02:42:37;6.50;99.90
29813;DHT22;16707;48.106;11.548;2024-03-06T02:45:05;6.40;99.90
29813;DHT22;16707;48.106;11.548;2024-03-06T02:47:32;6.30;99.90
29813;DHT22;16707;48.106;11.548;2024-03-06T02:49:59;6.30;99.90
29813;DHT22;16707;48.106;11.548;2024-03-06T02:52:26;6.30;99.90
29813;DHT22;16707;48.106;11.548;2024-03-06T02:54:54;6.20;99.90
29813;DHT22;16707;48.106;11.548;2024-03-06T02:57:20;6.30;99.90
29813;DHT22;16707;48.106;11.548;2024-03-06T02:59:47;6.00;99.90
29813;DHT22;16707;48.106;11.548;2024-03-06T03:02:14;6.00;99.90
29813;DHT22;16707;48.106;11.548;2024-03-06T03:04:40;5.90;99.90
29813;DHT22;16707;48.106;11.548;2024-03-06T03:07:08;5.70;99.90
29813;DHT22;16707;48.106;11.548;2024-03-06T03:09:35;5.50;99.90
29813;DHT22;16707;48.106;11.548;2024-03-06T03:12:05;5.50;99.90
29813;DHT22;16707;48.106;11.548;2024-03-06T03:14:31;5.50;99.90
29813;DHT22;16707;48.106;11.548;2024-03-06T03:16:59;5.50;99.90
29813;DHT22;16707;48.106;11.548;2024-03-06T03:19:26;5.50;99.90
29813;DHT22;16707;48.106;11.548;2024-03-06T03:21:53;5.50;99.90
29813;DHT22;16707;48.106;11.548;2024-03-06T03:24:20;5.50;99.90
29813;DHT22;16707;48.106;11.548;2024-03-06T03:26:47;5.50;99.90
29813;DHT22;16707;48.106;11.548;2024-03-06T03:29:15;5.40;99.90
29813;DHT22;16707;48.106;11.548;2024-03-06T03:31:42;5.30;99.90
29813;DHT22;16707;48.106;11.548;2024-03-06T03:34:08;5.20;99.90
29813;DHT22;16707;48.106;11.548;2024-03-06T03:36:39;5.20;99.90
29813;DHT22;16707;48.106;11.548;2024-03-06T03:39:06;5.10;99.90
29813;DHT22;16707;48.106;11.548;2024-03-06T03:41:33;5.10;99.90
29813;DHT22;16707;48.106;11.548;2024-03-06T03:44:00;5.10;99.90
29813;DHT22;16707;48.106;11.548;2024-03-06T03:46:28;5.10;99.90
29813;DHT22;16707;48.106;11.548;2024-03-06T03:48:54;5.10;99.90
29813;DHT22;16707;48.106;11.548;2024-03-06T03:51:21;5.20;99.90
29813;DHT22;16707;48.106;11.548;2024-03-06T03:53:48;5.30;99.90
29813;DHT22;16707;48.106;11.548;2024-03-06T03:56:16;5.30;99.90
29813;DHT22;16707;48.106;11.548;2024-03-06T03:58:43;5.30;99.90
29813;DHT22;16707;48.106;11.548;2024-03-06T04:01:10;5.30;99.90
29813;DHT22;16707;48.106;11.548;2024-03-06T04:03:38;5.30;99.90
29813;DHT22;16707;48.106;11.548;2024-03-06T04:06:06;5.30;99.90
29813;DHT22;16707;48.106;11.548;2024-03-06T04:08:32;5.30;99.90
29813;DHT22;16707;48.106;11.548;2024-03-06T04:10:59;5.30;99.90
29813;DHT22;16707;48.106;11.548;2024-03-06T04:13:26;5.20;99.90
29813;DHT22;16707;48.106;11.548;2024-03-06T04:15:53;5.20;99.90
29813;DHT22;16707;48.106;11.548;2024-03-06T04:18:19;5.30;99.90
29813;DHT22;16707;48.106;11.548;2024-03-06T04:20:47;5.30;99.90
29813;DHT22;16707;48.106;11.548;2024-03-06T04:23:14;5.20;99.90
29813;DHT22;16707;48.106;11.548;2024-03-06T04:25:41;5.30;99.90
29813;DHT22;16707;48.106;11.548;2024-03-06T04:28:08;5.30;99.90
29813;DHT22;16707;48.106;11.548;2024-03-06T04:30:35;5.30;99.90
29813;DHT22;16707;48.106;11.548;2024-03-06T04:33:02;5.30;99.90
29813;DHT22;16707;48.106;11.548;2024-03-06T04:35:29;5.30;99.90
29813;DHT22;16707;48.106;11.548;2024-03-06T04:37:57;5.30;99.90
29813;DHT22;16707;48.106;11.548;2024-03-06T04:40:27;5.40;99.90
29813;DHT22;16707;48.106;11.548;2024-03-06T04:42:54;5.30;99.90
29813;DHT22;16707;48.106;11.548;2024-03-06T04:45:21;5.20;99.90
29813;DHT22;16707;48.106;11.548;2024-03-06T04:47:48;5.20;99.90
29813;DHT22;16707;48.106;11.548;2024-03-06T04:50:14;5.40;99.90
29813;DHT22;16707;48.106;11.548;2024-03-06T04:52:41;5.40;99.90
29813;DHT22;16707;48.106;11.548;2024-03-06T04:55:09;5.30;99.90
29813;DHT22;16707;48.106;11.548;2024-03-06T04:57:37;5.30;99.90
29813;DHT22;16707;48.106;11.548;2024-03-06T05:00:04;5.20;99.90
29813;DHT22;16707;48.106;11.548;2024-03-06T05:02:31;5.10;99.90
29813;DHT22;16707;48.106;11.548;2024-03-06T05:04:59;5.20;99.90
29813;DHT22;16707;48.106;11.548;2024-03-06T05:07:26;5.20;99.90
29813;DHT22;16707;48.106;11.548;2024-03-06T05:09:53;5.00;99.90
29813;DHT22;16707;48.106;11.548;2024-03-06T05:12:21;5.10;99.90
29813;DHT22;16707;48.106;11.548;2024-03-06T05:14:48;5.10;99.90
29813;DHT22;16707;48.106;11.548;2024-03-06T05:17:15;4.90;99.90
29813;DHT22;16707;48.106;11.548;2024-03-06T05:19:41;4.80;99.90
29813;DHT22;16707;48.106;11.548;2024-03-06T05:22:08;4.70;99.90
29813;DHT22;16707;48.106;11.548;2024-03-06T05:24:36;4.70;99.90
29813;DHT22;16707;48.106;11.548;2024-03-06T05:27:03;4.70;99.90
29813;DHT22;16707;48.106;11.548;2024-03-06T05:29:31;4.80;99.90
29813;DHT22;16707;48.106;11.548;2024-03-06T05:31:59;4.70;99.90
29813;DHT22;16707;48.106;11.548;2024-03-06T05:34:26;4.80;99.90
29813;DHT22;16707;48.106;11.548;2024-03-06T05:36:53;4.80;99.90
29813;DHT22;16707;48.106;11.548;2024-03-06T05:39:20;4.80;99.90
29813;DHT22;16707;48.106;11.548;2024-03-06T05:41:47;4.70;99.90
29813;DHT22;16707;48.106;11.548;2024-03-06T05:44:13;4.70;99.90
29813;DHT22;16707;48.106;11.548;2024-03-06T05:46:42;4.80;99.90
29813;DHT22;16707;48.106;11.548;2024-03-06T05:49:08;4.80;99.90
29813;DHT22;16707;48.106;11.548;2024-03-06T05:51:35;4.80;99.90
29813;DHT22;16707;48.106;11.548;2024-03-06T05:54:03;4.80;99.90
29813;DHT22;16707;48.106;11.548;2024-03-06T05:56:33;4.80;99.90
29813;DHT22;16707;48.106;11.548;2024-03-06T05:59:00;4.70;99.90
29813;DHT22;16707;48.106;11.548;2024-03-06T06:01:30;4.70;99.90
29813;DHT22;16707;48.106;11.548;2024-03-06T06:03:58;4.80;99.90
29813;DHT22;16707;48.106;11.548;2024-03-06T06:06:26;4.80;99.90
29813;DHT22;16707;48.106;11.548;2024-03-06T06:08:52;5.10;99.90
29813;DHT22;16707;48.106;11.548;2024-03-06T06:11:19;5.10;99.90
29813;DHT22;16707;48.106;11.548;2024-03-06T06:13:46;5.20;99.90
29813;DHT22;16707;48.106;11.548;2024-03-06T06:16:13;5.20;99.90
29813;DHT22;16707;48.106;11.548;2024-03-06T06:18:40;5.20;99.90
29813;DHT22;16707;48.106;11.548;2024-03-06T06:21:08;5.30;99.90
29813;DHT22;16707;48.106;11.548;2024-03-06T06:23:35;5.40;99.90
29813;DHT22;16707;48.106;11.548;2024-03-06T06:26:02;5.40;99.90
29813;DHT22;16707;48.106;11.548;2024-03-06T06:28:28;5.30;99.90
29813;DHT22;16707;48.106;11.548;2024-03-06T06:30:55;5.30;99.90
29813;DHT22;16707;48.106;11.548;2024-03-06T06:33:22;5.30;99.90
29813;DHT22;16707;48.106;11.548;2024-03-06T06:35:49;5.20;99.90
29813;DHT22;16707;48.106;11.548;2024-03-06T06:38:18;5.20;99.90
29813;DHT22;16707;48.106;11.548;2024-03-06T06:40:45;5.20;99.90
29813;DHT22;16707;48.106;11.548;2024-03-06T06:43:13;5.20;99.90
29813;DHT22;16707;48.106;11.548;2024-03-06T06:45:40;5.20;99.90
29813;DHT22;16707;48.106;11.548;2024-03-06T06:48:07;5.20;99.90
29813;DHT22;16707;48.106;11.548;2024-03-06T06:50:35;5.20;99.90
29813;DHT22;16707;48.106;11.548;2024-03-06T06:53:01;5.30;99.90
29813;DHT22;16707;48.106;11.548;2024-03-06T06:55:30;5.30;99.90
29813;DHT22;16707;48.106;11.548;2024-03-06T06:58:11;5.30;99.90
29813;DHT22;16707;48.106;11.548;2024-03-06T07:00:38;5.30;99.90
29813;DHT22;16707;48.106;11.548;2024-03-06T07:03:04;5.40;99.90
29813;DHT22;16707;48.106;11.548;2024-03-06T07:05:32;5.50;99.90
29813;DHT22;16707;48.106;11.548;2024-03-06T07:07:59;5.50;99.90
29813;DHT22;16707;48.106;11.548;2024-03-06T07:10:26;5.50;99.90
29813;DHT22;16707;48.106;11.548;2024-03-06T07:12:54;5.50;99.90
29813;DHT22;16707;48.106;11.548;2024-03-06T07:15:21;5.50;99.90
29813;DHT22;16707;48.106;11.548;2024-03-06T07:17:47;5.40;99.90
29813;DHT22;16707;48.106;11.548;2024-03-06T07:20:15;5.40;99.90
29813;DHT22;16707;48.106;11.548;2024-03-06T07:22:42;5.40;99.90
29813;DHT22;16707;48.106;11.548;2024-03-06T07:25:09;5.50;99.90
29813;DHT22;16707;48.106;11.548;2024-03-06T07:27:36;5.40;99.90
29813;DHT22;16707;48.106;11.548;2024-03-06T07:30:05;5.40;99.90
29813;DHT22;16707;48.106;11.548;2024-03-06T07:32:32;5.40;99.90
29813;DHT22;16707;48.106;11.548;2024-03-06T07:34:59;5.40;99.90
29813;DHT22;16707;48.106;11.548;2024-03-06T07:37:25;5.50;99.90
29813;DHT22;16707;48.106;11.548;2024-03-06T07:39:52;5.50;99.90
29813;DHT22;16707;48.106;11.548;2024-03-06T07:42:19;5.60;99.90
29813;DHT22;16707;48.106;11.548;2024-03-06T07:44:46;5.60;99.90
29813;DHT22;16707;48.106;11.548;2024-03-06T07:47:14;5.70;99.90
29813;DHT22;16707;48.106;11.548;2024-03-06T07:49:41;5.70;99.90
29813;DHT22;16707;48.106;11.548;2024-03-06T07:52:09;5.70;99.90
29813;DHT22;16707;48.106;11.548;2024-03-06T07:54:36;5.70;99.90
29813;DHT22;16707;48.106;11.548;2024-03-06T07:57:04;5.70;99.90
29813;DHT22;16707;48.106;11.548;2024-03-06T07:59:31;5.80;99.90
29813;DHT22;16707;48.106;11.548;2024-03-06T08:01:58;5.70;99.90
29813;DHT22;16707;48.106;11.548;2024-03-06T08:04:27;5.60;99.90
29813;DHT22;16707;48.106;11.548;2024-03-06T08:06:54;5.60;99.90
29813;DHT22;16707;48.106;11.548;2024-03-06T08:09:21;5.70;99.90
29813;DHT22;16707;48.106;11.548;2024-03-06T08:11:49;5.70;99.90
29813;DHT22;16707;48.106;11.548;2024-03-06T08:14:15;5.80;99.90
29813;DHT22;16707;48.106;11.548;2024-03-06T08:16:42;5.70;99.90
29813;DHT22;16707;48.106;11.548;2024-03-06T08:19:09;5.70;99.90
29813;DHT22;16707;48.106;11.548;2024-03-06T08:21:38;5.70;99.90
29813;DHT22;16707;48.106;11.548;2024-03-06T08:24:05;5.70;99.90
29813;DHT22;16707;48.106;11.548;2024-03-06T08:26:32;5.80;99.90
29813;DHT22;16707;48.106;11.548;2024-03-06T08:28:58;5.80;99.90
29813;DHT22;16707;48.106;11.548;2024-03-06T08:31:25;5.90;99.90
29813;DHT22;16707;48.106;11.548;2024-03-06T08:33:52;5.90;99.90
29813;DHT22;16707;48.106;11.548;2024-03-06T08:36:19;5.80;99.90
29813;DHT22;16707;48.106;11.548;2024-03-06T08:38:48;6.00;99.90
29813;DHT22;16707;48.106;11.548;2024-03-06T08:41:14;6.00;99.90
29813;DHT22;16707;48.106;11.548;2024-03-06T08:43:41;6.00;99.90
29813;DHT22;16707;48.106;11.548;2024-03-06T08:46:08;6.00;99.90
29813;DHT22;16707;48.106;11.548;2024-03-06T08:48:34;6.00;99.90
29813;DHT22;16707;48.106;11.548;2024-03-06T08:51:01;5.90;99.90
29813;DHT22;16707;48.106;11.548;2024-03-06T08:53:28;5.90;99.90
29813;DHT22;16707;48.106;11.548;2024-03-06T08:55:56;5.90;99.90
29813;DHT22;16707;48.106;11.548;2024-03-06T08:58:23;6.00;99.90
29813;DHT22;16707;48.106;11.548;2024-03-06T09:00:50;6.10;99.90
29813;DHT22;16707;48.106;11.548;2024-03-06T09:03:17;6.10;99.90
29813;DHT22;16707;48.106;11.548;2024-03-06T09:05:43;6.10;99.90
29813;DHT22;16707;48.106;11.548;2024-03-06T09:08:10;6.20;99.90
29813;DHT22;16707;48.106;11.548;2024-03-06T09:10:37;6.20;99.90
29813;DHT22;16707;48.106;11.548;2024-03-06T09:13:05;6.20;99.90
29813;DHT22;16707;48.106;11.548;2024-03-06T09:15:32;6.30;99.90
29813;DHT22;16707;48.106;11.548;2024-03-06T09:17:59;6.20;99.90
29813;DHT22;16707;48.106;11.548;2024-03-06T09:20:26;6.30;99.90
29813;DHT22;16707;48.106;11.548;2024-03-06T09:22:53;6.30;99.90
29813;DHT22;16707;48.106;11.548;2024-03-06T09:25:22;6.40;99.90
29813;DHT22;16707;48.106;11.548;2024-03-06T09:27:49;6.40;99.90
29813;DHT22;16707;48.106;11.548;2024-03-06T09:30:17;6.40;99.90
29813;DHT22;16707;48.106;11.548;2024-03-06T09:32:43;6.60;99.90
29813;DHT22;16707;48.106;11.548;2024-03-06T09:35:10;6.70;99.90
29813;DHT22;16707;48.106;11.548;2024-03-06T09:37:37;6.70;99.90
29813;DHT22;16707;48.106;11.548;2024-03-06T09:40:08;6.60;99.90
29813;DHT22;16707;48.106;11.548;2024-03-06T09:42:36;6.50;99.90
29813;DHT22;16707;48.106;11.548;2024-03-06T09:45:04;6.60;99.90
29813;DHT22;16707;48.106;11.548;2024-03-06T09:47:32;6.80;99.90
29813;DHT22;16707;48.106;11.548;2024-03-06T09:49:59;6.90;99.90
29813;DHT22;16707;48.106;11.548;2024-03-06T09:52:28;7.00;99.90
29813;DHT22;16707;48.106;11.548;2024-03-06T09:54:56;7.10;99.90
29813;DHT22;16707;48.106;11.548;2024-03-06T09:57:23;7.10;99.90
29813;DHT22;16707;48.106;11.548;2024-03-06T09:59:50;7.20;99.90
29813;DHT22;16707;48.106;11.548;2024-03-06T10:02:18;7.20;99.90
29813;DHT22;16707;48.106;11.548;2024-03-06T10:04:49;7.10;99.90
29813;DHT22;16707;48.106;11.548;2024-03-06T10:07:16;7.20;99.90
29813;DHT22;16707;48.106;11.548;2024-03-06T10:09:46;7.20;99.90
29813;DHT22;16707;48.106;11.548;2024-03-06T10:12:14;7.20;99.90
29813;DHT22;16707;48.106;11.548;2024-03-06T10:14:48;7.20;99.90
29813;DHT22;16707;48.106;11.548;2024-03-06T10:17:17;7.30;99.90
29813;DHT22;16707;48.106;11.548;2024-03-06T10:19:49;7.40;99.90
29813;DHT22;16707;48.106;11.548;2024-03-06T10:22:19;7.30;99.90
29813;DHT22;16707;48.106;11.548;2024-03-06T10:24:46;7.40;99.90
29813;DHT22;16707;48.106;11.548;2024-03-06T10:27:14;7.30;99.90
29813;DHT22;16707;48.106;11.548;2024-03-06T10:29:41;7.40;99.90
29813;DHT22;16707;48.106;11.548;2024-03-06T10:32:08;7.20;99.90
29813;DHT22;16707;48.106;11.548;2024-03-06T10:34:36;7.10;99.90
29813;DHT22;16707;48.106;11.548;2024-03-06T10:37:05;6.80;99.90
29813;DHT22;16707;48.106;11.548;2024-03-06T10:39:32;6.90;99.90
29813;DHT22;16707;48.106;11.548;2024-03-06T10:41:59;7.00;99.90
29813;DHT22;16707;48.106;11.548;2024-03-06T10:44:31;6.90;99.90
29813;DHT22;16707;48.106;11.548;2024-03-06T10:46:59;6.80;99.90
29813;DHT22;16707;48.106;11.548;2024-03-06T10:49:27;6.90;99.90
29813;DHT22;16707;48.106;11.548;2024-03-06T10:51:57;7.00;99.90
29813;DHT22;16707;48.106;11.548;2024-03-06T10:54:25;7.20;99.90
29813;DHT22;16707;48.106;11.548;2024-03-06T10:56:53;7.20;99.90
29813;DHT22;16707;48.106;11.548;2024-03-06T10:59:20;7.30;99.90
29813;DHT22;16707;48.106;11.548;2024-03-06T11:01:47;7.40;99.90
29813;DHT22;16707;48.106;11.548;2024-03-06T11:04:15;7.60;99.90
29813;DHT22;16707;48.106;11.548;2024-03-06T11:06:42;7.90;99.90
29813;DHT22;16707;48.106;11.548;2024-03-06T11:09:10;8.00;99.90
29813;DHT22;16707;48.106;11.548;2024-03-06T11:11:48;7.90;99.90
29813;DHT22;16707;48.106;11.548;2024-03-06T11:14:16;7.90;99.90
29813;DHT22;16707;48.106;11.548;2024-03-06T11:16:56;7.60;99.90
29813;DHT22;16707;48.106;11.548;2024-03-06T11:19:24;7.50;99.90
29813;DHT22;16707;48.106;11.548;2024-03-06T11:21:51;7.60;99.90
29813;DHT22;16707;48.106;11.548;2024-03-06T11:24:21;7.40;99.90
29813;DHT22;16707;48.106;11.548;2024-03-06T11:26:50;7.40;99.90
29813;DHT22;16707;48.106;11.548;2024-03-06T11:29:17;7.40;99.90
29813;DHT22;16707;48.106;11.548;2024-03-06T11:32:00;7.40;99.90
29813;DHT22;16707;48.106;11.548;2024-03-06T11:34:28;7.20;99.90
29813;DHT22;16707;48.106;11.548;2024-03-06T11:36:56;7.30;99.90
29813;DHT22;16707;48.106;11.548;2024-03-06T11:39:23;7.30;99.90
29813;DHT22;16707;48.106;11.548;2024-03-06T11:41:51;7.40;99.90
29813;DHT22;16707;48.106;11.548;2024-03-06T11:44:18;7.60;99.90
29813;DHT22;16707;48.106;11.548;2024-03-06T11:46:47;7.50;99.90
29813;DHT22;16707;48.106;11.548;2024-03-06T11:49:17;7.60;99.90
29813;DHT22;16707;48.106;11.548;2024-03-06T11:51:46;7.60;99.90
29813;DHT22;16707;48.106;11.548;2024-03-06T11:54:13;7.70;99.90
29813;DHT22;16707;48.106;11.548;2024-03-06T11:56:40;7.50;99.90
29813;DHT22;16707;48.106;11.548;2024-03-06T11:59:08;7.50;99.90
29813;DHT22;16707;48.106;11.548;2024-03-06T12:01:36;7.50;99.90
29813;DHT22;16707;48.106;11.548;2024-03-06T12:04:03;7.40;99.90
29813;DHT22;16707;48.106;11.548;2024-03-06T12:06:31;7.30;99.90
29813;DHT22;16707;48.106;11.548;2024-03-06T12:08:58;7.40;99.90
29813;DHT22;16707;48.106;11.548;2024-03-06T12:11:25;7.50;99.90
29813;DHT22;16707;48.106;11.548;2024-03-06T12:13:53;7.60;99.90
29813;DHT22;16707;48.106;11.548;2024-03-06T12:16:21;7.60;99.90
29813;DHT22;16707;48.106;11.548;2024-03-06T12:18:53;7.40;99.90
29813;DHT22;16707;48.106;11.548;2024-03-06T12:21:20;7.30;99.90
29813;DHT22;16707;48.106;11.548;2024-03-06T12:23:48;7.20;99.90
29813;DHT22;16707;48.106;11.548;2024-03-06T12:26:14;7.20;99.90
29813;DHT22;16707;48.106;11.548;2024-03-06T12:28:41;7.30;99.90
29813;DHT22;16707;48.106;11.548;2024-03-06T12:31:08;7.30;99.90
29813;DHT22;16707;48.106;11.548;2024-03-06T12:33:36;7.30;99.90
29813;DHT22;16707;48.106;11.548;2024-03-06T12:36:04;7.40;99.90
29813;DHT22;16707;48.106;11.548;2024-03-06T12:38:32;7.30;99.90
29813;DHT22;16707;48.106;11.548;2024-03-06T12:40:58;7.40;99.90
29813;DHT22;16707;48.106;11.548;2024-03-06T12:43:25;7.30;99.90
29813;DHT22;16707;48.106;11.548;2024-03-06T12:45:54;7.30;99.90
29813;DHT22;16707;48.106;11.548;2024-03-06T12:48:22;7.30;99.90
29813;DHT22;16707;48.106;11.548;2024-03-06T12:50:50;7.40;99.90
29813;DHT22;16707;48.106;11.548;2024-03-06T12:53:19;7.30;99.90
29813;DHT22;16707;48.106;11.548;2024-03-06T12:55:47;7.30;99.90
29813;DHT22;16707;48.106;11.548;2024-03-06T12:58:14;7.50;99.90
29813;DHT22;16707;48.106;11.548;2024-03-06T13:00:40;7.50;99.90
29813;DHT22;16707;48.106;11.548;2024-03-06T13:03:07;7.50;99.90
29813;DHT22;16707;48.106;11.548;2024-03-06T13:05:35;7.50;99.90
29813;DHT22;16707;48.106;11.548;2024-03-06T13:08:04;7.50;99.90
29813;DHT22;16707;48.106;11.548;2024-03-06T13:10:31;7.60;99.90
29813;DHT22;16707;48.106;11.548;2024-03-06T13:12:57;7.50;99.90
29813;DHT22;16707;48.106;11.548;2024-03-06T13:15:24;7.60;99.90
29813;DHT22;16707;48.106;11.548;2024-03-06T13:17:51;7.60;99.90
29813;DHT22;16707;48.106;11.548;2024-03-06T13:20:18;7.60;99.90
29813;DHT22;16707;48.106;11.548;2024-03-06T13:22:44;7.60;99.90
29813;DHT22;16707;48.106;11.548;2024-03-06T13:25:13;7.50;99.90
29813;DHT22;16707;48.106;11.548;2024-03-06T13:27:40;7.60;99.90
29813;DHT22;16707;48.106;11.548;2024-03-06T13:30:07;7.40;99.90
29813;DHT22;16707;48.106;11.548;2024-03-06T13:32:34;7.40;99.90
29813;DHT22;16707;48.106;11.548;2024-03-06T13:35:01;7.40;99.90
29813;DHT22;16707;48.106;11.548;2024-03-06T13:37:27;7.60;99.90
29813;DHT22;16707;48.106;11.548;2024-03-06T13:39:54;7.40;99.90
29813;DHT22;16707;48.106;11.548;2024-03-06T13:42:27;7.40;99.90
29813;DHT22;16707;48.106;11.548;2024-03-06T13:44:54;7.60;99.90
29813;DHT22;16707;48.106;11.548;2024-03-06T13:47:21;7.80;99.90
29813;DHT22;16707;48.106;11.548;2024-03-06T13:49:47;7.80;99.90
29813;DHT22;16707;48.106;11.548;2024-03-06T13:52:14;8.00;99.90
29813;DHT22;16707;48.106;11.548;2024-03-06T13:54:46;8.10;99.90
29813;DHT22;16707;48.106;11.548;2024-03-06T13:57:13;8.10;99.90
29813;DHT22;16707;48.106;11.548;2024-03-06T13:59:41;7.80;99.90
29813;DHT22;16707;48.106;11.548;2024-03-06T14:02:08;7.70;99.90
29813;DHT22;16707;48.106;11.548;2024-03-06T14:04:35;7.60;99.90
29813;DHT22;16707;48.106;11.548;2024-03-06T14:07:02;7.50;99.90
29813;DHT22;16707;48.106;11.548;2024-03-06T14:09:29;7.60;99.90
29813;DHT22;16707;48.106;11.548;2024-03-06T14:11:56;7.60;99.90
29813;DHT22;16707;48.106;11.548;2024-03-06T14:14:22;7.70;99.90
29813;DHT22;16707;48.106;11.548;2024-03-06T14:16:50;7.60;99.90
29813;DHT22;16707;48.106;11.548;2024-03-06T14:19:17;7.60;99.90
29813;DHT22;16707;48.106;11.548;2024-03-06T14:21:44;7.90;99.90
29813;DHT22;16707;48.106;11.548;2024-03-06T14:24:12;7.80;99.90
29813;DHT22;16707;48.106;11.548;2024-03-06T14:26:39;7.60;99.90
29813;DHT22;16707;48.106;11.548;2024-03-06T14:29:06;7.60;99.90
29813;DHT22;16707;48.106;11.548;2024-03-06T14:31:34;7.50;99.90
29813;DHT22;16707;48.106;11.548;2024-03-06T14:34:03;7.30;99.90
29813;DHT22;16707;48.106;11.548;2024-03-06T14:36:29;7.40;99.90
29813;DHT22;16707;48.106;11.548;2024-03-06T14:38:56;7.50;99.90
29813;DHT22;16707;48.106;11.548;2024-03-06T14:41:23;7.40;99.90
29813;DHT22;16707;48.106;11.548;2024-03-06T14:43:50;7.50;99.90
29813;DHT22;16707;48.106;11.548;2024-03-06T14:46:16;7.50;99.90
29813;DHT22;16707;48.106;11.548;2024-03-06T14:48:43;7.30;99.90
29813;DHT22;16707;48.106;11.548;2024-03-06T14:51:12;7.50;99.90
29813;DHT22;16707;48.106;11.548;2024-03-06T14:53:43;7.60;99.90
29813;DHT22;16707;48.106;11.548;2024-03-06T14:56:10;7.70;99.90
29813;DHT22;16707;48.106;11.548;2024-03-06T14:58:37;7.60;99.90
29813;DHT22;16707;48.106;11.548;2024-03-06T15:01:04;7.60;99.90
29813;DHT22;16707;48.106;11.548;2024-03-06T15:03:31;7.70;99.90
29813;DHT22;16707;48.106;11.548;2024-03-06T15:05:58;7.60;99.90
29813;DHT22;16707;48.106;11.548;2024-03-06T15:08:26;7.70;99.90
29813;DHT22;16707;48.106;11.548;2024-03-06T15:10:53;7.60;99.90
29813;DHT22;16707;48.106;11.548;2024-03-06T15:13:20;7.60;99.90
29813;DHT22;16707;48.106;11.548;2024-03-06T15:15:48;7.60;99.90
29813;DHT22;16707;48.106;11.548;2024-03-06T15:18:16;7.40;99.90
29813;DHT22;16707;48.106;11.548;2024-03-06T15:20:42;7.50;99.90
29813;DHT22;16707;48.106;11.548;2024-03-06T15:23:09;7.50;99.90
29813;DHT22;16707;48.106;11.548;2024-03-06T15:25:38;7.50;99.90
29813;DHT22;16707;48.106;11.548;2024-03-06T15:28:05;7.50;99.90
29813;DHT22;16707;48.106;11.548;2024-03-06T15:30:31;7.50;99.90